Ravenna, Ohio
Current Conditions -  °F | °C
As of 6:14 PM on Saturday 20 Dec 2014 (Local Time) from KPOV Reporting Station
NA  
Wind Chill: -2°   Ceiling: NA
Heat Index: -2°   Visibility: 10mi
Dew Point: -7°   Wind: 0mph
Humidity: 70%   Direction: NA
Pressure: 30.25"   Gusts: NA
Location:  41.16°N, 81.24°W
Report Text: KPOV 202314Z AUTO 00000KT 10SM M02/M07 A3025 RMK AO2 T10171066
Loading
Personal Weather Stations






























Interactive Weather Map New forecast layout! Learn more

10-Day Weather Forecast

Advertisements
Track Severe Weather on mobile